На главную страницу сайта
· Наш магазин · Объявления · Рейтинг · Статьи · Частоты · Копилка · Аэродромы · Live!
· Файлы · Диапазоны · Сигналы · Музей · Mods · LPD-форум · Клуб · Радиостанции
На сайте: гостей - 103,
участников - 9 [ muha131, sergsero, Ed North Caucasus, Roma, ra6fsf, Шрек2, seregamaxonin, kentor, Хвост Слона]
 · Начало · Опросы · События · Статистика · Поиск · Регистрация · Правила · FAQ · Галерея ·
 Форум —› Авиационный диапазон —› Нелётная погода 
Широкополосные связные радиоприемники в нашем магазине


Icom IC-R6
руб.

Yaesu VR-120D
руб.

Icom IC-R75
руб.

Yaesu VR-160
руб.

Icom IC-R20
руб.
 Страница:  ««  1  2  3  4  5  6  7  8  9  10  »»Поиск в теме
Автор Сообщение
Фотограф
Модератор раздела
Offline6.3
с янв 2006
Чкаловский-Круг
Сообщений: 23403

Дата: 15 Янв 2017 00:07:50 #  
Фотограф
Модератор раздела
Offline6.3
с янв 2006
Чкаловский-Круг
Сообщений: 23403

Дата: 07 Апр 2017 23:05:09 #  
Реклама
Google
kovcheg
Участник
Offline4.8
с сен 2004
Москва. ЗАО
Сообщений: 786

Дата: 07 Апр 2017 23:16:09 #  

Гроза вроде северо-восточнее Рязани пока.
http://www.lightningmaps.org/?lang=en#y=55.0943;x=39.9781;z=8;t=3;m=sat;r=0;s=0;o=0;b=;n=0;d=5;dl=3;dc=0;ra=1;
NORD73
Участник
Offline4.2
с окт 2016
Нарьян-Мар
Сообщений: 2021

Дата: 08 Апр 2017 01:48:29 · Поправил: NORD73 (08 Апр 2017 09:17:07) #  

Один см снега выпадет в Москве, так весь день, по всем центральным каналам ТВ, каждый час об этом.
RZN163
Участник
Offline5.9
с авг 2012
KO94UP,LO04FF
Сообщений: 1204

Дата: 08 Апр 2017 07:30:00 #  

посверкало немного ночью и в самой Рязани,аппаратура жива-и то хорошо
Фотограф
Модератор раздела
Offline6.3
с янв 2006
Чкаловский-Круг
Сообщений: 23403

Дата: 10 Май 2017 06:32:48 #  

В Москве ливневый снег.
Фотограф
Модератор раздела
Offline6.3
с янв 2006
Чкаловский-Круг
Сообщений: 23403

Дата: 29 Май 2017 00:59:40 #  
meteorolog
Участник
Offline4.6
с окт 2005
Москва
Сообщений: 5140

Дата: 29 Май 2017 16:11:24 #  

Сейчас прошел шквал с усилением ветра до 28 м/с.
Самолеты на орбиты загоняли по всем аэропортам.




Фотограф
Модератор раздела
Offline6.3
с янв 2006
Чкаловский-Круг
Сообщений: 23403

Дата: 29 Май 2017 19:05:14 #  

11 человек погибли из-за сильного урагана в Москве, в понедельник, 29 мая.
В Подмосковье 7,3 тысячи человек остались без электричества. Основные отключения затронули запад Подмосковья, в частности, Наро-Фоминский, Истринский и Можайский районы.
Поваленные деревья перегородили выезд из резиденции премьер-министра России Дмитрия Медведева в Горках. В нескольких местах поврежден забор. Сейчас персонал расчищает дорогу бензопилами.
Pink
Участник
Offline1.6
с авг 2007
Москва
Сообщений: 242

Дата: 29 Май 2017 19:33:30 #  

11 человек погибли из-за сильного урагана в Москве, в понедельник, 29 мая.
Число жертв превысило показатель 1998 года, когда в столице погибли девять человек.
http://www.interfax.ru/moscow/564361
Фотограф
Модератор раздела
Offline6.3
с янв 2006
Чкаловский-Круг
Сообщений: 23403

Дата: 20 Июл 2017 22:55:55 #  

Сегодня 20:50
В связи с обострением стационарного атмосферного фронта в ближайшие 1-3 часа на севере Московской области, вечером 20 июля и ночью с 20 на 21 июля на большей части территории Московской области ожидается кратковременный дождь, гроза, при грозе усиление ветра 12-17 м/с.
Фотограф
Модератор раздела
Offline6.3
с янв 2006
Чкаловский-Круг
Сообщений: 23403

Дата: 27 Июл 2017 06:45:19 #  

Сегодня 04:05
Главное управление МЧС России по Московской области предупреждает: В связи с прохождением фронта окклюзии в теплом секторе балтийского циклона в ближайшие 1-2 часа с сохранением утром 27 июля по Московской области ожидается кратковременный дождь, гроза, град, порывы ветра до 17 м/с.

МЧС
Фотограф
Модератор раздела
Offline6.3
с янв 2006
Чкаловский-Круг
Сообщений: 23403

Дата: 13 Авг 2017 20:53:39 #  
Фотограф
Модератор раздела
Offline6.3
с янв 2006
Чкаловский-Круг
Сообщений: 23403

Дата: 04 Май 2018 14:30:12 #  

Экипажи подсказывают РП Чкаловского, что с запада движется на большой скорости "засветка" высотой до 9 километров.
meteorolog
Участник
Offline4.6
с окт 2005
Москва
Сообщений: 5140

Дата: 04 Май 2018 14:53:25 #  

В районе Волоколамск - Клин грозовые очаги.
Mamadu
Участник
Offline4.0
с мар 2010
Надо жить у моря
Сообщений: 11685

Дата: 27 Июл 2018 04:50:07 #  

Лет несколько назад один товарищ кидал хорошую ссылку для мониторинга в онлайн режиме циклонов-ураганов над Тихим океаном. Куда-то она затерялась. Это не Nullschool и не Windy. Если кто-то её располагает, просьба повторить.
Фотограф
Модератор раздела
Offline6.3
с янв 2006
Чкаловский-Круг
Сообщений: 23403

Дата: 25 Май 2019 19:31:09 #  
Corvus
Участник
Offline3.2
с мая 2003
Самара
Сообщений: 2954

Дата: 27 Май 2019 08:35:21 #  

Методические рекомендации ВВС МО СССР
"Воздействие на самолёт атмосферного электричества и молниезащита летательных аппаратов"
1986 год

https://cloud.mail.ru/public/3VBM/bVJBEjRYw
Corvus
Участник
Offline3.2
с мая 2003
Самара
Сообщений: 2954

Дата: 21 Июн 2019 18:31:37 #  

Старая песня на новый лад:

21 июня 2019 г., AEX.RU – Авиакомпания "Аэрофлот" вносит изменения в расписание рейсов, запланированных на субботу, 22 июня. Согласно собщению авиаперевозчика, причиной стал прогнорз неблагоприятных метеоусловий.

В частности, отменяются рейсы из аэропорта "Шереметьево" в Саратов, Уфу, Ригу, Нижний Новгород, Хельсинки, Прагу, Минск, Ставрополь, Челябинск, Казань, Вильнюс, Пермь, Волгоград и обратно.

Кроме того, изменено время вылета на более позднее рейсов из Тбилиси, Ростова, Вены, Штутгарта, Екатеринбурга и Волгограда.

Оповещение пассажиров проводится через центр бронирования и информации.

В компании отмечают, что прибывшие на регистрацию будут обеспечены всем необходимым в соответствии с Федеральными авиационными правилами и стандартами "Аэрофлота".


https://www.aex.ru/news/2019/6/21/198760/
Corvus
Участник
Offline3.2
с мая 2003
Самара
Сообщений: 2954

Дата: 21 Июн 2019 18:35:41 #  

TAF UWSS 211400Z 2115/2124 35003MPS CAVOK
TEMPO 2115/2118 07003MPS

TAF UWUU 211359Z 2115/2215 31003MPS CAVOK
TEMPO 2115/2118 35006G12MPS 9999 SCT040
TEMPO 2118/2208 VRB01MPS
BECMG 2208/2210 23003G08MPS

TAF UWGG 211350Z 2115/2215 18003MPS 9999 SCT030 TX30/2115Z TN14/2203Z

TAF UWKD 211400Z 2115/2215 33003MPS 9999 SCT040 TX30/2212Z TN17/2201Z
TEMPO 2115/2118 29005MPS BKN030CB
BECMG 2121/2123 24004G09MPS

TAF USPP 211358Z 2115/2215 22003G08MPS 9999 SCT040
BECMG 2118/2120 4000 BR
BECMG 2203/2205 9999 NSW

TAF URWW 211358Z 2115/2124 06005G10MPS CAVOK
TEMPO 2115/2124 04006G11MPS SCT030

Перефразируя анекдот про суслика:
кто нибудь видит в этих прогнозах нелётные метеоусловия и опасные явления погоды? нет? а они там есть!
Men
Участник
Offline1.8
с ноя 2010
Челябинск
Сообщений: 354

Дата: 21 Июн 2019 19:12:53 #  

А вот расшифровка Metar.....
meteorolog
Участник
Offline4.6
с окт 2005
Москва
Сообщений: 5140

Дата: 21 Июн 2019 19:41:28 · Поправил: meteorolog (21 Июн 2019 21:02:51) #  

Corvus
кто нибудь видит в этих прогнозах нелётные метеоусловия и опасные явления погоды?
Шквал, сдвиг ветра, болтанка?

TAF UUEE 211650Z 2118/2218 24003G08MPS 9999 SCT040 TX30/2209Z TN18/2201Z
PROB40
TEMPO 2118/2124 -TSRA SCT020CB
TEMPO 2208/2218 22009G17MPS 2100 -TSRA FEW004 BKN020CB
PROB30
TEMPO 2208/2218 -TSRAGR BKN020CB

И ProNebo вот это ещё выдал

A3420/19 NOTAMN
Q) UUWV/QFALT/IV/NBO/A/000/999/5558N03725E005
A) UUEE B) 1906221200 C) 1906221800
E) DUE TO ADVERSE WEATHER CONDITIONS (THUNDERSTORM FORCASTED WITH
WIND GUST MORE THAN 17M/SEC, REDUCING OF RWY COMPLEX CAPACITY TO
50 TKOF AND LDG OPERATIONS PER HR FORECASTED. AIRLINES ARE
RECOMMENDED TO CORRECT THEIR SCHEDULES ACCORDING TO AD CAPACITY:
40 TKOF AND LDG OPERATIONS PER HR FOR BASE AIRLINE PAO
,,AEROFLOT-RUSSIAN AIRLINES,,,
10 TKOF AND LDG OPERATIONS PER HR FOR OTHER AIRLINES ON COOR WITH
AD OPERATOR.
(TEL +7(495)578-01-28, E-MAIL:SVOKW7X(AT)SVO.AERO.
CREATED: 21 Jun 2019 11:00:00
SOURCE: UUUUYNYX
Corvus
Участник
Offline3.2
с мая 2003
Самара
Сообщений: 2954

Дата: 22 Июн 2019 07:36:09 #  

И ProNebo вот это ещё выдал
meteorolog


Спасибо! На авиафоруме тоже НОТАМ написали:

(Б2398/19 НОТАМН
Щ)УУВЖ/ЩФАЛТ/ИЖ/НБО/А/000/999/5558С03725В005
А)УУЕЕ Б)1906221200 Ц)1906221800
Е)В СВЯЗИ С НЕБЛАГОПРИЯТНЫМИ МЕТЕОРОЛОГИ4ЕСКИМИ УСЛОВИЯМИ
(ПРОГНОЗИРУЕТСЯ ГРОЗОВАЯ ДЕЯТЕЛЬНОСТЬ, ПРИ ГРОЗЕ ПОРЫВЫ ВЕТРА БОЛЕЕ
17 М/СЕК (ПРОГНОЗ ФГБУ , , ГАМЦ РОСГИДРОМЕТА , , ШЕРЕМЕТЬЕВО, , СОСТАВЛЕН
ИЮН 06 0900)) ПРОГНОЗИРУЕТСЯ СНИЖЕНИЕ ПРОПУСКНОЙ СПОСОБНОСТИ
КОМПЛЕКСА ВПП ДО 50 ВЗЛЕТНО-ПОСАДО4НЫХ ОПЕРАЦИЙ В 4АС.
РЕКОМЕНДУЕТСЯ АВИАКОМПАНИЯМ СКОРРЕКТИРОВАТЬ РАСПИСАНИЕ ИСХОДЯ ИЗ
ПРОПУСКНОЙ СПОСОБНОСТИ АЭРОДРОМА:
- 40 ВЗЛЕТНО-ПОСАДО4НЫХ ОПЕРАЦИЙ В 4АС ДЛЯ БАЗОВОЙ АВИАКОМПАНИИ ПАО
, , АЭРОФЛОТ-РОССИЙСКИЕ АВИАЛИНИИ, , ,
- 10 ВЗЛЕТНО-ПОСАДО4НЫХ ОПЕРАЦИЙ В 4АС ДЛЯ ДРУГИХ АВИАКОМПАНИЙ
ПО СОГЛАСОВАНИЮ С ОПЕРАТОРОМ АЭРОДРОМА
(ТЕЛ.:+7(495)578-01-28, ЭЛ.АДРЕС:SVOKW7X(СОБАКА)SVO.AERO.)
Corvus
Участник
Offline3.2
с мая 2003
Самара
Сообщений: 2954

Дата: 22 Июн 2019 07:44:14 #  

TAF UUEE 211650Z 2118/2218
meteorolog


Из новости не очевидно, что речь идёт о погоде в Шереметьево. Там ежечасно обслуживается несколько десятков рейсов, но почему-то отмена коснулась 13 городов (логично было предположить, что Армагеддон ожидается именно в этих городах). Как их выбрали - методом тыка?
Corvus
Участник
Offline3.2
с мая 2003
Самара
Сообщений: 2954

Дата: 22 Июн 2019 07:52:58 #  

ПРОГНОЗИРУЕТСЯ ГРОЗОВАЯ ДЕЯТЕЛЬНОСТЬ, ПРИ ГРОЗЕ ПОРЫВЫ ВЕТРА БОЛЕЕ
17 М/СЕК (ПРОГНОЗ ФГБУ , , ГАМЦ РОСГИДРОМЕТА , , ШЕРЕМЕТЬЕВО, , СОСТАВЛЕН
ИЮН 06 0900


Не очень понятно, какой прогноз, составленный в "0900", имеется в виду.

TAF UUEE 210458Z 2106/2206 21003G08MPS 9999 SCT040 TX31/2112Z TN18/2201Z
PROB40 TEMPO 2108/2117 3100 -SHRA SCT020CB

TAF UUEE 210750Z 2109/2209 22006G11MPS 9999 SCT040 TX31/2112Z TN18/2201Z
PROB40 TEMPO 2109/2124 3100 -SHRA SCT020CB

TAF UUEE 211050Z 2112/2212 22006G11MPS 9999 SCT040 TX31/2112Z TN18/2201Z
TEMPO 2114/2124 -SHRA SCT020CB
TEMPO 2208/2212 22009G17MPS 2100 -TSRA FEW004 BKN020CB

TAF UUEE 211313Z 2113/2212 24006G11MPS 9999 SCT040 TX28/2113Z TN18/2201Z
TEMPO 2113/2124 -SHRA SCT020CB
TEMPO 2208/2212 22009G17MPS 2100 -TSRA FEW004 BKN020CB

TAF UUEE 211412Z 2115/2215 24006G11MPS 9999 SCT040 TX28/2115Z TN18/2201Z
TEMPO 2115/2124 -SHRA SCT020CB
TEMPO 2208/2215 22009G17MPS 2100 -TSRA FEW004 BKN020CB
PROB30 TEMPO 2208/2215 -TSRAGR BKN020CB

Гроза и порывы ветра 17 м/с по вчерашним ТАФам ожидались сегодня с 08 до 12 UTC, потом с 08 до 15 UTC.
НОТАМ почему-то с 12 до 18 UTC.
meteorolog
Участник
Offline4.6
с окт 2005
Москва
Сообщений: 5140

Дата: 22 Июн 2019 08:24:29 · Поправил: meteorolog (22 Июн 2019 08:25:44) #  

Corvus
Как их выбрали - методом тыка?
Я, честно говоря, подробно не анализировал. Надо бы посмотреть время вылета этих рейсов из SVO.
Полчаса назад светило солнце, а сейчас с запада потянуло слоистую облачность.
Основные засветки пока в районе Смоленска-Витебска.
NORD73
Участник
Offline4.2
с окт 2016
Нарьян-Мар
Сообщений: 2021

Дата: 22 Июн 2019 08:54:35 #  

Основные засветки пока в районе Смоленска-Витебска.

"В Багдаде всё спокойно" (С) :

http://www.hobitus.com/noaa/composite/hvct-precip/

http://ru.blitzortung.org/live_lightning_maps.php?map=10
Aeroplanino
Участник
Offline3.7
с дек 2004
Московская область
Сообщений: 1874

Дата: 22 Июн 2019 14:16:12 · Поправил: Aeroplanino (22 Июн 2019 14:17:23) #  

Corvus
Все массовые отмены рейсов Аэрофлота связаны с прогнозируемым снижением пропускной способности Шереметьево. Будь то снегопад, переохлаждённые осадки или грозы. Шереметьево фактически работает на границе своей максимальной пропускной способности, поэтому любое снижение доступной пропускной способности неизбежно повлечёт задержки рейсов. Аэрофлот заранее выбирает "жертв" по своим представлениям - какие рейсы отменить, а пассажиров пересадить на более поздние рейсы или раскидать по другим авиакомпаниям.
Эта проблема не решится пока не будет введена третья полоса. Так что это надо просто иметь ввиду пассажирам.
Мне кажется, Аэрофлот ориентируется не на TAF, а на более долгосрочные прогнозы. На несколько суток. Если действовать по TAF, то уже поздно будет проблемы с рейсами решать.

Другой вопрос к Шереметьево - зачем они дают слоты на рейсы (или не введут слотирование), если знают, что все рейсы будут выполнены только в нормальную погоду?
И похожий вопрос к Аэрофлоту - зачем организовывать столько рейсов, если они знают, что в плохую погоду аэропорт их не вытащит?
Впрочем, ответы на эти вопросы лежат на поверхности :)
meteorolog
Участник
Offline4.6
с окт 2005
Москва
Сообщений: 5140

Дата: 22 Июн 2019 17:18:44 #  

По Шарику погода сейчас
METAR UUEE 221400Z 25009MPS 9999 SCT050TCU 29/15 Q1015 R24L/CLRD62 R24C/CLRD62 TEMPO 26009G17MPS 3100 -TSRA BKN020CB
Гроз и дождя не наблюдаю, только кучёвка.
let4eg
Участник
Offline3.4
с окт 2007
Москвабад
Сообщений: 1647

Дата: 22 Июн 2019 17:53:45 #  

В СЗАО гремит и немного поливает.
Послушать
Реклама
Google
 Страница:  ««  1  2  3  4  5  6  7  8  9  10  »» 

Создавать сообщения могут только зарегистрированные участники форума.
Войти в форум :: » Логин » Пароль
Начало
Средства связи, рации. Купить радиостанции Motorola, Yaesu, Vertex, приемники, антенны.
Время загрузки страницы (сек.): 0.043; miniBB ®